Time;durP1;ratioP1;P1;durP2;ratioP2;P2;SDS_P1;SDS_P2;PMS_P1;PMS_P2;Temp;Humidity;BMP_temperature;BMP_pressure;BME280_temperature;BME280_humidity;BME280_pressure;Samples;Min_cycle;Max_cycle;Signal;HPM_P1;HPM_P2
2022/08/20 00:01:03;;;;;;;7.28;4.88;;;;;;;;;;5004871;28;20071;-85
2022/08/20 00:03:36;;;;;;;8.68;4.88;;;;;;;;;;5004895;28;20097;-85
2022/08/20 00:06:02;;;;;;;6.22;4.00;;;;;;;;;;4973159;28;20093;-85
2022/08/20 00:08:28;;;;;;;6.90;4.47;;;;;;;;;;4973815;28;20125;-85
2022/08/20 00:10:55;;;;;;;6.63;4.60;;;;;;;;;;4973579;28;20512;-85
2022/08/20 00:13:24;;;;;;;10.20;4.68;;;;;;;;;;4973027;28;20443;-85
2022/08/20 00:15:50;;;;;;;7.60;4.28;;;;;;;;;;4972297;28;20145;-85
2022/08/20 00:18:16;;;;;;;7.50;4.20;;;;;;;;;;5004392;28;20038;-85
2022/08/20 00:20:45;;;;;;;13.63;4.80;;;;;;;;;;4973887;28;20129;-85
2022/08/20 00:23:11;;;;;;;9.20;4.20;;;;;;;;;;5004851;28;20046;-85
2022/08/20 00:25:38;;;;;;;17.13;4.90;;;;;;;;;;5004324;28;20038;-85
2022/08/20 00:28:05;;;;;;;8.55;4.35;;;;;;;;;;5004333;28;20054;-85
2022/08/20 00:30:33;;;;;;;8.13;4.70;;;;;;;;;;5004898;28;20396;-85
2022/08/20 00:33:01;;;;;;;6.63;3.80;;;;;;;;;;4972577;28;20051;-86
2022/08/20 00:35:28;;;;;;;9.93;4.97;;;;;;;;;;5005046;28;20122;-86
2022/08/20 00:37:55;;;;;;;6.72;3.90;;;;;;;;;;4972703;28;20046;-86
2022/08/20 00:40:27;;;;;;;8.23;4.50;;;;;;;;;;5004450;28;20093;-86
2022/08/20 00:42:56;;;;;;;8.85;4.10;;;;;;;;;;4973661;28;20579;-85
2022/08/20 00:45:23;;;;;;;8.40;4.55;;;;;;;;;;4973130;28;20046;-86
2022/08/20 00:47:49;;;;;;;10.90;4.43;;;;;;;;;;4970090;28;20086;-86
2022/08/20 00:50:18;;;;;;;6.47;3.70;;;;;;;;;;4973016;28;20051;-86
2022/08/20 00:52:45;;;;;;;9.55;4.50;;;;;;;;;;5020836;28;20046;-86
2022/08/20 00:55:12;;;;;;;9.77;3.78;;;;;;;;;;5004296;28;20058;-85
2022/08/20 00:57:44;;;;;;;7.45;3.65;;;;;;;;;;4972146;28;20050;-86
2022/08/20 01:00:12;;;;;;;10.80;4.28;;;;;;;;;;4952951;28;20047;-86
2022/08/20 01:02:39;;;;;;;9.93;3.83;;;;;;;;;;4969633;28;20070;-86
2022/08/20 01:05:08;;;;;;;8.90;3.63;;;;;;;;;;4972399;28;20046;-86
2022/08/20 01:07:34;;;;;;;8.90;3.47;;;;;;;;;;4972394;28;20057;-86
2022/08/20 01:10:09;;;;;;;10.02;3.42;;;;;;;;;;5003625;28;20064;-86
2022/08/20 01:12:37;;;;;;;7.78;3.35;;;;;;;;;;4972846;28;20257;-85
2022/08/20 01:15:05;;;;;;;7.45;3.80;;;;;;;;;;4972122;28;20051;-86
2022/08/20 01:17:33;;;;;;;8.50;3.67;;;;;;;;;;4972048;28;20098;-86
2022/08/20 01:19:59;;;;;;;9.05;4.28;;;;;;;;;;4971787;28;20078;-86
2022/08/20 01:25:22;;;;;;;;;;;;;;;;;;5003367;28;20054;-86
2022/08/20 01:27:50;;;;;;;12.25;4.15;;;;;;;;;;4971930;28;20387;-86
2022/08/20 01:30:16;;;;;;;11.82;4.10;;;;;;;;;;4972576;28;20039;-85
2022/08/20 01:32:42;;;;;;;9.88;4.38;;;;;;;;;;5002352;28;20432;-86
2022/08/20 01:35:09;;;;;;;8.80;3.70;;;;;;;;;;4972336;28;20053;-86
2022/08/20 01:37:35;;;;;;;11.02;3.97;;;;;;;;;;4971768;28;20050;-86
2022/08/20 01:40:01;;;;;;;7.55;3.60;;;;;;;;;;5003437;28;20096;-86
2022/08/20 01:42:31;;;;;;;9.25;4.00;;;;;;;;;;5002049;28;20051;-86
2022/08/20 01:44:57;;;;;;;10.18;4.20;;;;;;;;;;4968853;28;20050;-86
2022/08/20 01:47:27;;;;;;;10.05;4.00;;;;;;;;;;4972217;28;20531;-86
2022/08/20 01:49:55;;;;;;;12.45;4.30;;;;;;;;;;4972510;28;20059;-86
2022/08/20 01:52:41;;;;;;;9.75;3.97;;;;;;;;;;4971975;28;20043;-86
2022/08/20 01:55:07;;;;;;;;;;;;;;;;;;4970091;28;20055;-86
2022/08/20 01:57:34;;;;;;;6.47;3.38;;;;;;;;;;5003363;28;19981;-86
2022/08/20 02:00:00;;;;;;;8.55;3.50;;;;;;;;;;4972036;28;20105;-86
2022/08/20 02:02:27;;;;;;;8.00;3.30;;;;;;;;;;4972533;28;20054;-86
2022/08/20 02:04:53;;;;;;;8.10;3.25;;;;;;;;;;4971762;28;20101;-85
2022/08/20 02:07:20;;;;;;;8.27;3.13;;;;;;;;;;5020063;28;20042;-86
2022/08/20 02:09:47;;;;;;;7.90;3.08;;;;;;;;;;4971712;28;20090;-86
2022/08/20 02:12:14;;;;;;;8.27;3.25;;;;;;;;;;5002885;28;20086;-86
2022/08/20 02:14:44;;;;;;;8.20;3.22;;;;;;;;;;4971293;28;20487;-86
2022/08/20 02:17:11;;;;;;;8.48;2.83;;;;;;;;;;5003151;28;20061;-86
2022/08/20 02:19:39;;;;;;;8.20;2.67;;;;;;;;;;5003586;28;20055;-86
2022/08/20 02:22:20;;;;;;;5.90;2.35;;;;;;;;;;5002896;28;20047;-86
2022/08/20 02:24:46;;;;;;;6.45;2.38;;;;;;;;;;5001586;28;20051;-86
2022/08/20 02:27:13;;;;;;;7.28;2.65;;;;;;;;;;4971459;28;20031;-86
2022/08/20 02:29:40;;;;;;;6.18;2.80;;;;;;;;;;5004576;28;20134;-86
2022/08/20 02:32:07;;;;;;;5.32;2.65;;;;;;;;;;4989161;28;20073;-86
2022/08/20 02:34:33;;;;;;;8.07;2.90;;;;;;;;;;4975393;28;20134;-85
2022/08/20 02:37:00;;;;;;;10.65;2.60;;;;;;;;;;5023335;28;20047;-85
2022/08/20 02:39:26;;;;;;;8.48;2.53;;;;;;;;;;5006415;28;20492;-85
2022/08/20 02:41:52;;;;;;;9.02;2.60;;;;;;;;;;5006646;28;20547;-86
2022/08/20 02:44:20;;;;;;;7.85;2.70;;;;;;;;;;5005518;28;20051;-86
2022/08/20 02:46:48;;;;;;;6.38;2.55;;;;;;;;;;4975397;28;20073;-86
2022/08/20 02:49:16;;;;;;;6.45;2.67;;;;;;;;;;4975236;28;20043;-86
2022/08/20 02:51:43;;;;;;;11.80;3.30;;;;;;;;;;4975858;28;20057;-86
2022/08/20 02:54:09;;;;;;;8.90;2.53;;;;;;;;;;4973245;28;20137;-86
2022/08/20 02:56:35;;;;;;;5.43;2.60;;;;;;;;;;4974613;28;20046;-86
2022/08/20 02:59:01;;;;;;;8.65;2.80;;;;;;;;;;5006546;28;20043;-86
2022/08/20 03:01:27;;;;;;;8.52;2.50;;;;;;;;;;5006710;28;20450;-86
2022/08/20 03:03:57;;;;;;;6.10;2.83;;;;;;;;;;5005769;28;20057;-86
2022/08/20 03:06:23;;;;;;;7.15;2.88;;;;;;;;;;5006582;28;20125;-85
2022/08/20 03:08:49;;;;;;;7.63;2.83;;;;;;;;;;4974227;28;20121;-85
2022/08/20 03:11:15;;;;;;;6.35;2.70;;;;;;;;;;4974506;28;20097;-86
2022/08/20 03:13:41;;;;;;;6.13;2.78;;;;;;;;;;5005446;28;20054;-86
2022/08/20 03:16:08;;;;;;;7.45;2.88;;;;;;;;;;5006014;28;20054;-86
2022/08/20 03:18:36;;;;;;;6.65;3.47;;;;;;;;;;5006482;28;20047;-86
2022/08/20 03:21:03;;;;;;;8.25;2.58;;;;;;;;;;5006114;28;20047;-86
2022/08/20 03:23:29;;;;;;;5.05;2.35;;;;;;;;;;5008128;28;20488;-86
2022/08/20 03:25:56;;;;;;;7.80;2.78;;;;;;;;;;4973852;28;20042;-85
2022/08/20 03:28:22;;;;;;;6.45;2.45;;;;;;;;;;4989759;28;20054;-86
2022/08/20 03:30:50;;;;;;;4.03;2.03;;;;;;;;;;5006406;28;20157;-86
2022/08/20 03:33:16;;;;;;;6.95;2.28;;;;;;;;;;5004971;28;20114;-86
2022/08/20 03:35:42;;;;;;;4.82;2.15;;;;;;;;;;4974843;28;20078;-86
2022/08/20 03:38:10;;;;;;;5.63;1.95;;;;;;;;;;4973867;28;20082;-86
2022/08/20 03:40:37;;;;;;;3.95;2.25;;;;;;;;;;4979761;28;20050;-86
2022/08/20 03:43:04;;;;;;;7.20;2.53;;;;;;;;;;5006525;28;20050;-86
2022/08/20 03:45:31;;;;;;;5.65;2.20;;;;;;;;;;5005564;28;20054;-86
2022/08/20 03:48:00;;;;;;;5.20;2.17;;;;;;;;;;5005453;28;20059;-86
2022/08/20 03:50:28;;;;;;;7.30;2.40;;;;;;;;;;5005927;28;20141;-86
2022/08/20 03:52:55;;;;;;;7.25;2.35;;;;;;;;;;4973138;28;20062;-86
2022/08/20 03:55:22;;;;;;;5.15;2.35;;;;;;;;;;4972990;28;20448;-85
2022/08/20 03:57:50;;;;;;;5.45;2.28;;;;;;;;;;4974377;28;20050;-86
2022/08/20 04:00:19;;;;;;;7.00;2.50;;;;;;;;;;4974238;28;20101;-86
2022/08/20 04:02:46;;;;;;;7.05;2.47;;;;;;;;;;5005449;28;20109;-85
2022/08/20 04:05:12;;;;;;;6.40;2.13;;;;;;;;;;4973100;28;20046;-86
2022/08/20 04:07:39;;;;;;;8.70;2.35;;;;;;;;;;5004352;28;20042;-86
2022/08/20 04:10:06;;;;;;;8.82;2.50;;;;;;;;;;4973930;28;20171;-86
2022/08/20 04:12:32;;;;;;;7.18;2.55;;;;;;;;;;4973466;28;20038;-86
2022/08/20 04:14:58;;;;;;;7.05;2.40;;;;;;;;;;4972968;28;20098;-86
2022/08/20 04:17:26;;;;;;;5.22;2.50;;;;;;;;;;4974063;28;20093;-86
2022/08/20 04:19:52;;;;;;;8.05;2.30;;;;;;;;;;4973638;28;20050;-86
2022/08/20 04:22:18;;;;;;;5.22;2.05;;;;;;;;;;4971817;28;20054;-86
2022/08/20 04:24:44;;;;;;;6.95;2.65;;;;;;;;;;4972451;28;20047;-85
2022/08/20 04:27:10;;;;;;;6.07;2.28;;;;;;;;;;4973330;28;20155;-86
2022/08/20 04:29:36;;;;;;;6.78;2.10;;;;;;;;;;4974086;28;20042;-86
2022/08/20 04:32:04;;;;;;;6.53;2.50;;;;;;;;;;4973432;28;20054;-86
2022/08/20 04:34:30;;;;;;;7.00;2.17;;;;;;;;;;5004207;28;20101;-86
2022/08/20 04:36:56;;;;;;;8.88;2.58;;;;;;;;;;4972244;28;20412;-86
2022/08/20 04:39:22;;;;;;;4.78;2.22;;;;;;;;;;5004869;28;20543;-86
2022/08/20 04:41:48;;;;;;;6.55;2.40;;;;;;;;;;5004561;28;20143;-86
2022/08/20 04:44:14;;;;;;;8.02;2.35;;;;;;;;;;5003497;28;20121;-85
2022/08/20 04:46:42;;;;;;;8.13;2.67;;;;;;;;;;5004257;28;20054;-85
2022/08/20 04:49:08;;;;;;;6.47;2.30;;;;;;;;;;4972941;28;20078;-86
2022/08/20 04:51:34;;;;;;;4.95;2.15;;;;;;;;;;4972126;28;20053;-85
2022/08/20 04:54:02;;;;;;;5.80;2.22;;;;;;;;;;5003561;28;20039;-85
2022/08/20 04:56:29;;;;;;;4.72;2.22;;;;;;;;;;4973378;28;20043;-85
2022/08/20 04:58:58;;;;;;;7.47;2.50;;;;;;;;;;5004230;28;20178;-86
2022/08/20 05:01:24;;;;;;;6.15;2.58;;;;;;;;;;4973334;28;20089;-86
2022/08/20 05:03:53;;;;;;;3.88;2.15;;;;;;;;;;4972638;28;20042;-86
2022/08/20 05:06:20;;;;;;;8.30;2.40;;;;;;;;;;4972173;28;20042;-86
2022/08/20 05:08:46;;;;;;;4.95;2.30;;;;;;;;;;5003973;28;20570;-86
2022/08/20 05:11:13;;;;;;;5.75;2.22;;;;;;;;;;5004365;28;20182;-86
2022/08/20 05:13:39;;;;;;;5.93;2.90;;;;;;;;;;4971119;28;20543;-85
2022/08/20 05:16:05;;;;;;;4.55;2.40;;;;;;;;;;4972190;28;20137;-85
2022/08/20 05:18:32;;;;;;;6.70;2.17;;;;;;;;;;5004114;28;20487;-85
2022/08/20 05:21:04;;;;;;;8.07;2.28;;;;;;;;;;4971972;28;20522;-85
2022/08/20 05:23:31;;;;;;;6.13;2.42;;;;;;;;;;4970654;28;20054;-85
2022/08/20 05:25:58;;;;;;;7.97;2.33;;;;;;;;;;4972457;28;20511;-85
2022/08/20 05:28:26;;;;;;;5.75;2.38;;;;;;;;;;4972825;28;20051;-85
2022/08/20 05:30:52;;;;;;;5.82;2.30;;;;;;;;;;4972743;28;20121;-85
2022/08/20 05:33:20;;;;;;;7.20;2.30;;;;;;;;;;4972508;28;20043;-85
2022/08/20 05:35:46;;;;;;;6.10;2.13;;;;;;;;;;4970995;28;20412;-85
2022/08/20 05:38:14;;;;;;;8.93;3.42;;;;;;;;;;4971925;28;20076;-85
2022/08/20 05:40:41;;;;;;;7.53;2.30;;;;;;;;;;5002639;28;20079;-85
2022/08/20 05:43:07;;;;;;;6.70;2.20;;;;;;;;;;4969715;28;20046;-85
2022/08/20 05:45:38;;;;;;;5.13;2.33;;;;;;;;;;4972368;28;20477;-85
2022/08/20 05:48:05;;;;;;;6.35;2.45;;;;;;;;;;4971951;28;20063;-85
2022/08/20 05:50:32;;;;;;;6.63;2.53;;;;;;;;;;4966362;28;20085;-85
2022/08/20 05:52:58;;;;;;;5.05;2.63;;;;;;;;;;5002537;28;20079;-88
2022/08/20 05:55:24;;;;;;;9.30;2.75;;;;;;;;;;4987599;28;20065;-87
2022/08/20 05:57:56;;;;;;;5.20;2.30;;;;;;;;;;5003660;28;20129;-92
2022/08/20 06:00:22;;;;;;;6.47;2.17;;;;;;;;;;4999632;28;20130;-87
2022/08/20 06:05:33;;;;;;;6.80;2.30;;;;;;;;;;4971487;28;20082;-87
2022/08/20 06:07:59;;;;;;;5.82;2.65;;;;;;;;;;4975913;28;20043;-87
2022/08/20 06:10:25;;;;;;;5.38;2.33;;;;;;;;;;5005044;28;20397;-87
2022/08/20 06:12:52;;;;;;;7.75;2.72;;;;;;;;;;5006381;28;20405;-86
2022/08/20 06:15:18;;;;;;;8.40;2.50;;;;;;;;;;4975918;28;20061;-86
2022/08/20 06:17:44;;;;;;;6.95;2.78;;;;;;;;;;5007834;28;20046;-86
2022/08/20 06:20:11;;;;;;;6.40;2.67;;;;;;;;;;4975282;28;20043;-86
2022/08/20 06:22:37;;;;;;;6.05;2.40;;;;;;;;;;5006695;28;20054;-86
2022/08/20 06:25:04;;;;;;;6.55;2.70;;;;;;;;;;4975574;28;20047;-87
2022/08/20 06:27:30;;;;;;;7.03;2.60;;;;;;;;;;4971610;28;20039;-86
2022/08/20 06:29:56;;;;;;;7.57;2.42;;;;;;;;;;4973750;28;20074;-85
2022/08/20 06:32:23;;;;;;;6.15;2.30;;;;;;;;;;4975733;28;20047;-87
2022/08/20 06:34:50;;;;;;;12.77;2.60;;;;;;;;;;4975922;28;20166;-85
2022/08/20 06:37:17;;;;;;;10.27;3.20;;;;;;;;;;4974713;28;20134;-86
2022/08/20 06:39:43;;;;;;;5.30;2.33;;;;;;;;;;5006951;28;20042;-86
2022/08/20 06:42:10;;;;;;;9.93;2.65;;;;;;;;;;4972656;28;20042;-86
2022/08/20 06:44:36;;;;;;;8.15;2.53;;;;;;;;;;5004716;28;20484;-86
2022/08/20 06:47:04;;;;;;;5.70;2.22;;;;;;;;;;4974242;28;20047;-86
2022/08/20 06:49:30;;;;;;;7.93;2.92;;;;;;;;;;5007047;28;20047;-88
2022/08/20 06:51:57;;;;;;;7.10;2.47;;;;;;;;;;5005891;28;20113;-89
2022/08/20 06:54:23;;;;;;;7.63;2.53;;;;;;;;;;5006156;28;20049;-90
2022/08/20 06:56:53;;;;;;;8.18;2.50;;;;;;;;;;5023500;28;20111;-90
2022/08/20 06:59:19;;;;;;;5.22;2.22;;;;;;;;;;5006062;28;20373;-88
2022/08/20 07:01:48;;;;;;;3.97;2.35;;;;;;;;;;4974870;28;20050;-89
2022/08/20 07:04:14;;;;;;;6.53;2.55;;;;;;;;;;4977316;28;20073;-86
2022/08/20 07:06:40;;;;;;;4.82;2.00;;;;;;;;;;4978242;28;20113;-86
2022/08/20 07:09:07;;;;;;;7.60;2.55;;;;;;;;;;5007044;28;20455;-89
2022/08/20 07:11:34;;;;;;;7.40;2.33;;;;;;;;;;5004656;28;20043;-86
2022/08/20 07:14:04;;;;;;;5.13;2.03;;;;;;;;;;5005090;28;20104;-88
2022/08/20 07:16:30;;;;;;;6.30;2.50;;;;;;;;;;4975136;28;20112;-87
2022/08/20 07:18:57;;;;;;;8.52;2.30;;;;;;;;;;4973318;28;20038;-87
2022/08/20 07:21:23;;;;;;;8.23;2.70;;;;;;;;;;4976663;28;20043;-87
2022/08/20 07:23:49;;;;;;;6.53;2.53;;;;;;;;;;4975974;28;20518;-86
2022/08/20 07:26:15;;;;;;;6.15;2.33;;;;;;;;;;4974131;28;20074;-87
2022/08/20 07:28:41;;;;;;;6.85;2.30;;;;;;;;;;5003785;28;20589;-86
2022/08/20 07:33:52;;;;;;;8.65;2.55;;;;;;;;;;4975018;28;20046;-87
2022/08/20 07:36:18;;;;;;;3.10;1.80;;;;;;;;;;5005616;28;20352;-87
2022/08/20 07:38:46;;;;;;;7.10;2.50;;;;;;;;;;4974676;28;20101;-86
2022/08/20 07:41:13;;;;;;;8.48;2.35;;;;;;;;;;4974697;28;20522;-86
2022/08/20 07:43:39;;;;;;;4.57;2.03;;;;;;;;;;4972210;28;20058;-87
2022/08/20 07:46:08;;;;;;;9.55;2.60;;;;;;;;;;5005197;28;20459;-87
2022/08/20 07:48:35;;;;;;;6.47;2.50;;;;;;;;;;5005857;28;20062;-86
2022/08/20 07:51:03;;;;;;;7.07;2.38;;;;;;;;;;5005376;28;20046;-87
2022/08/20 07:53:29;;;;;;;7.10;2.13;;;;;;;;;;5005061;28;20109;-87
2022/08/20 07:55:56;;;;;;;6.22;2.47;;;;;;;;;;5005552;28;20054;-87
2022/08/20 07:58:23;;;;;;;7.85;2.70;;;;;;;;;;4973852;28;20118;-87
2022/08/20 08:00:50;;;;;;;8.02;2.40;;;;;;;;;;4973364;28;20050;-86
2022/08/20 08:03:16;;;;;;;7.85;2.33;;;;;;;;;;5004788;28;20488;-87
2022/08/20 08:05:43;;;;;;;7.80;2.72;;;;;;;;;;4974190;28;20046;-87
2022/08/20 08:08:11;;;;;;;7.22;2.35;;;;;;;;;;5005222;28;20504;-87
2022/08/20 08:10:37;;;;;;;5.97;2.33;;;;;;;;;;5005666;28;20081;-87
2022/08/20 08:13:07;;;;;;;8.57;2.63;;;;;;;;;;5004158;28;20057;-87
2022/08/20 08:15:36;;;;;;;7.88;2.63;;;;;;;;;;4973043;28;20050;-86
2022/08/20 08:18:13;;;;;;;6.53;2.47;;;;;;;;;;4973776;28;20058;-87
2022/08/20 08:20:42;;;;;;;6.97;2.70;;;;;;;;;;5005141;28;20077;-86
2022/08/20 08:23:10;;;;;;;7.18;2.35;;;;;;;;;;5003729;28;20129;-87
2022/08/20 08:25:37;;;;;;;7.28;2.13;;;;;;;;;;4973994;28;20046;-86
2022/08/20 08:28:04;;;;;;;9.20;2.97;;;;;;;;;;5004851;28;20109;-87
2022/08/20 08:30:30;;;;;;;7.40;2.58;;;;;;;;;;5004452;28;20054;-87
2022/08/20 08:33:41;;;;;;;6.95;2.30;;;;;;;;;;5003402;28;20125;-87
2022/08/20 08:35:46;;;;;;;11.35;2.72;;;;;;;;;;4976148;28;20575;-86
2022/08/20 08:38:13;;;;;;;4.45;2.00;;;;;;;;;;4973611;28;20089;-87
2022/08/20 08:40:40;;;;;;;7.93;2.50;;;;;;;;;;5004963;28;20101;-87
2022/08/20 08:43:06;;;;;;;7.03;2.65;;;;;;;;;;4970168;28;20189;-87
2022/08/20 08:45:42;;;;;;;6.82;2.45;;;;;;;;;;4973239;28;20050;-87
2022/08/20 08:48:08;;;;;;;;;;;;;;;;;;4973413;28;20102;-87
2022/08/20 08:50:36;;;;;;;9.65;2.28;;;;;;;;;;4973292;28;20379;-86
2022/08/20 08:53:04;;;;;;;7.97;2.60;;;;;;;;;;4972781;28;20035;-86
2022/08/20 08:55:31;;;;;;;6.82;2.67;;;;;;;;;;4973246;28;20059;-87
2022/08/20 08:57:58;;;;;;;6.93;2.80;;;;;;;;;;5003507;28;20055;-87
2022/08/20 09:00:27;;;;;;;6.63;2.40;;;;;;;;;;4972194;28;20058;-87
2022/08/20 09:03:00;;;;;;;6.30;2.25;;;;;;;;;;5003582;28;20051;-87
2022/08/20 09:05:31;;;;;;;6.78;2.40;;;;;;;;;;5020991;28;20047;-87
2022/08/20 09:07:57;;;;;;;8.07;2.72;;;;;;;;;;5004344;28;20130;-87
2022/08/20 09:10:23;;;;;;;6.10;2.60;;;;;;;;;;4973106;28;20063;-87
2022/08/20 09:12:51;;;;;;;6.03;2.42;;;;;;;;;;5003144;28;20051;-87
2022/08/20 09:15:17;;;;;;;4.82;2.42;;;;;;;;;;4971712;28;20043;-87
2022/08/20 09:17:43;;;;;;;6.82;2.10;;;;;;;;;;4972993;28;20054;-86
2022/08/20 09:20:09;;;;;;;3.75;2.00;;;;;;;;;;5003990;28;20515;-87
2022/08/20 09:22:35;;;;;;;7.82;2.70;;;;;;;;;;4972045;28;20117;-87
2022/08/20 09:25:02;;;;;;;6.65;2.58;;;;;;;;;;5003962;28;20046;-87
2022/08/20 09:27:30;;;;;;;8.95;2.47;;;;;;;;;;4971613;28;20074;-86
2022/08/20 09:29:56;;;;;;;8.43;2.85;;;;;;;;;;5003405;28;20046;-87
2022/08/20 09:32:23;;;;;;;7.82;2.58;;;;;;;;;;4971880;28;20361;-87
2022/08/20 09:34:54;;;;;;;9.52;2.70;;;;;;;;;;4972722;28;20043;-87
2022/08/20 09:37:21;;;;;;;9.73;2.72;;;;;;;;;;5003739;28;20059;-87
2022/08/20 09:39:47;;;;;;;5.20;2.40;;;;;;;;;;4972461;28;20127;-87
2022/08/20 09:42:15;;;;;;;6.03;2.35;;;;;;;;;;4970336;28;20047;-87
2022/08/20 09:44:41;;;;;;;6.43;2.38;;;;;;;;;;5003397;28;20134;-87
2022/08/20 09:47:08;;;;;;;6.55;2.33;;;;;;;;;;5002925;28;20059;-87
2022/08/20 09:49:36;;;;;;;9.13;2.40;;;;;;;;;;5003793;28;20054;-87
2022/08/20 09:52:03;;;;;;;6.68;2.38;;;;;;;;;;4971105;28;20050;-87
2022/08/20 09:54:32;;;;;;;7.15;2.67;;;;;;;;;;5020439;28;20075;-87
2022/08/20 09:56:59;;;;;;;7.28;2.30;;;;;;;;;;4971797;28;20432;-87
2022/08/20 09:59:26;;;;;;;6.15;2.47;;;;;;;;;;5003886;28;20046;-87
2022/08/20 10:01:51;;;;;;;5.78;2.55;;;;;;;;;;4970902;28;20035;-87
2022/08/20 10:04:17;;;;;;;8.38;2.65;;;;;;;;;;4972020;28;20047;-87
2022/08/20 10:06:44;;;;;;;5.13;2.20;;;;;;;;;;4972212;28;20488;-87
2022/08/20 10:09:10;;;;;;;6.82;2.60;;;;;;;;;;5003495;28;20050;-87
2022/08/20 10:11:36;;;;;;;10.85;2.70;;;;;;;;;;4970946;28;20407;-88
2022/08/20 10:14:02;;;;;;;7.75;2.40;;;;;;;;;;4972006;28;20616;-88
2022/08/20 10:16:28;;;;;;;7.45;2.67;;;;;;;;;;5002696;28;20055;-88
2022/08/20 10:18:54;;;;;;;9.02;2.70;;;;;;;;;;5003275;28;20423;-88
2022/08/20 10:21:20;;;;;;;6.47;2.80;;;;;;;;;;5002545;28;20046;-87
2022/08/20 10:23:48;;;;;;;5.88;2.45;;;;;;;;;;4970818;28;20401;-88
2022/08/20 10:26:15;;;;;;;6.45;2.80;;;;;;;;;;5002889;28;20420;-87
2022/08/20 10:28:42;;;;;;;6.03;2.55;;;;;;;;;;5003324;28;20411;-88
2022/08/20 10:31:09;;;;;;;6.25;2.45;;;;;;;;;;5001948;28;20053;-88
2022/08/20 10:33:35;;;;;;;6.88;2.50;;;;;;;;;;4971495;28;20082;-88
2022/08/20 10:36:12;;;;;;;7.07;2.40;;;;;;;;;;4971755;28;20396;-88
2022/08/20 10:38:38;;;;;;;6.93;2.35;;;;;;;;;;4972223;28;20133;-88
2022/08/20 10:41:05;;;;;;;5.25;2.30;;;;;;;;;;4970442;28;20440;-88
2022/08/20 10:43:31;;;;;;;5.95;2.42;;;;;;;;;;4971506;28;20038;-88
2022/08/20 10:45:57;;;;;;;5.03;2.50;;;;;;;;;;4971136;28;20090;-88
2022/08/20 10:48:24;;;;;;;6.10;2.53;;;;;;;;;;5003666;28;20058;-88
2022/08/20 10:50:50;;;;;;;9.52;3.00;;;;;;;;;;5003902;28;20432;-89
2022/08/20 10:53:16;;;;;;;8.75;2.88;;;;;;;;;;4973342;28;20073;-88
2022/08/20 10:55:42;;;;;;;5.35;2.47;;;;;;;;;;4975199;28;20089;-88
2022/08/20 10:58:08;;;;;;;5.80;2.45;;;;;;;;;;4975297;28;20231;-88
2022/08/20 11:00:35;;;;;;;6.95;2.80;;;;;;;;;;5008504;28;20057;-88
2022/08/20 11:03:01;;;;;;;5.43;2.50;;;;;;;;;;4974153;28;20035;-88
2022/08/20 11:05:27;;;;;;;6.20;2.72;;;;;;;;;;5006865;28;20078;-88
2022/08/20 11:07:58;;;;;;;6.93;2.38;;;;;;;;;;4975193;28;20051;-87
2022/08/20 11:10:25;;;;;;;6.97;2.15;;;;;;;;;;4975516;28;20047;-88
2022/08/20 11:12:51;;;;;;;6.22;2.70;;;;;;;;;;4974815;28;20085;-88
2022/08/20 11:15:17;;;;;;;4.95;2.50;;;;;;;;;;4974702;28;20086;-88
2022/08/20 11:17:44;;;;;;;6.72;2.85;;;;;;;;;;5006585;28;20046;-88
2022/08/20 11:20:10;;;;;;;6.13;2.53;;;;;;;;;;5006259;28;20055;-88
2022/08/20 11:22:36;;;;;;;7.45;2.83;;;;;;;;;;4973059;28;20134;-88
2022/08/20 11:25:04;;;;;;;5.18;2.85;;;;;;;;;;4974314;28;20046;-88
2022/08/20 11:27:31;;;;;;;6.70;2.72;;;;;;;;;;4975085;28;20050;-88
2022/08/20 11:29:57;;;;;;;7.70;2.55;;;;;;;;;;4974697;28;20097;-88
2022/08/20 11:32:24;;;;;;;6.38;2.33;;;;;;;;;;5004690;28;20121;-88
2022/08/20 11:34:50;;;;;;;6.18;2.80;;;;;;;;;;4974467;28;20043;-88
2022/08/20 11:37:17;;;;;;;6.10;2.70;;;;;;;;;;5005322;28;20057;-88
2022/08/20 11:39:43;;;;;;;7.88;3.22;;;;;;;;;;4974839;28;20046;-88
2022/08/20 11:42:09;;;;;;;9.00;3.28;;;;;;;;;;4973547;28;20051;-88
2022/08/20 11:44:35;;;;;;;8.48;3.00;;;;;;;;;;5006109;28;20043;-88
2022/08/20 11:47:02;;;;;;;7.55;3.00;;;;;;;;;;5004992;28;20051;-87
2022/08/20 11:49:33;;;;;;;6.28;2.90;;;;;;;;;;5005735;28;20054;-88
2022/08/20 11:51:59;;;;;;;7.68;3.15;;;;;;;;;;4972788;28;20492;-88
2022/08/20 11:54:27;;;;;;;9.38;3.47;;;;;;;;;;5006009;28;20531;-88
2022/08/20 11:56:55;;;;;;;5.10;2.65;;;;;;;;;;5007906;28;20539;-88
2022/08/20 11:59:21;;;;;;;5.85;2.80;;;;;;;;;;4974796;28;20085;-88
2022/08/20 12:01:47;;;;;;;5.63;3.22;;;;;;;;;;5020657;28;20051;-88
2022/08/20 12:04:13;;;;;;;7.72;2.80;;;;;;;;;;4973609;28;20055;-87
2022/08/20 12:06:39;;;;;;;8.25;2.97;;;;;;;;;;4973719;28;20046;-87
2022/08/20 12:09:05;;;;;;;7.05;2.88;;;;;;;;;;4973911;28;20078;-87
2022/08/20 12:11:31;;;;;;;6.90;2.83;;;;;;;;;;5005328;28;20405;-88
2022/08/20 12:13:57;;;;;;;6.25;2.80;;;;;;;;;;5003491;28;20051;-87
2022/08/20 12:16:23;;;;;;;5.65;2.38;;;;;;;;;;5004608;28;20563;-88
2022/08/20 12:18:49;;;;;;;7.60;2.92;;;;;;;;;;4974081;28;20042;-87
2022/08/20 12:21:16;;;;;;;8.23;2.97;;;;;;;;;;5004544;28;20058;-88
2022/08/20 12:23:42;;;;;;;5.85;2.72;;;;;;;;;;4973872;28;20510;-88
2022/08/20 12:26:08;;;;;;;7.22;2.88;;;;;;;;;;5004820;28;20181;-87
2022/08/20 12:28:34;;;;;;;10.02;3.38;;;;;;;;;;5003958;28;20050;-88
2022/08/20 12:31:00;;;;;;;5.43;2.13;;;;;;;;;;5003859;28;20050;-88
2022/08/20 12:33:26;;;;;;;6.75;2.50;;;;;;;;;;4973695;28;20042;-88
2022/08/20 12:35:52;;;;;;;7.82;3.03;;;;;;;;;;4973370;28;20046;-88
2022/08/20 12:38:18;;;;;;;6.10;2.40;;;;;;;;;;4973382;28;20567;-88
2022/08/20 12:40:45;;;;;;;5.28;2.40;;;;;;;;;;4973545;28;20130;-87
2022/08/20 12:43:11;;;;;;;6.85;2.33;;;;;;;;;;5003682;28;20050;-88
2022/08/20 12:45:37;;;;;;;5.50;2.30;;;;;;;;;;5003363;28;20039;-88
2022/08/20 12:48:07;;;;;;;6.28;2.75;;;;;;;;;;5003961;28;20069;-88
2022/08/20 12:50:35;;;;;;;5.78;2.53;;;;;;;;;;4973052;28;20046;-88
2022/08/20 12:53:01;;;;;;;5.88;2.38;;;;;;;;;;5004401;28;20105;-88
2022/08/20 12:55:27;;;;;;;6.53;2.47;;;;;;;;;;4973176;28;20039;-88
2022/08/20 12:57:56;;;;;;;4.93;2.33;;;;;;;;;;4973253;28;20053;-88
2022/08/20 13:00:40;;;;;;;4.30;2.35;;;;;;;;;;4971901;28;20055;-88
2022/08/20 13:03:07;;;;;;;6.50;2.38;;;;;;;;;;4972930;28;20484;-88
2022/08/20 13:05:34;;;;;;;9.07;2.40;;;;;;;;;;5003936;28;20043;-88
2022/08/20 13:08:00;;;;;;;4.95;2.33;;;;;;;;;;4972626;28;20500;-88
2022/08/20 13:10:28;;;;;;;6.78;2.70;;;;;;;;;;5004405;28;20054;-88
2022/08/20 13:12:54;;;;;;;6.10;2.50;;;;;;;;;;4972714;28;20484;-88
2022/08/20 13:15:21;;;;;;;4.95;2.50;;;;;;;;;;4971701;28;20136;-88
2022/08/20 13:17:51;;;;;;;5.75;2.33;;;;;;;;;;4972931;28;20130;-88
2022/08/20 13:20:17;;;;;;;6.15;2.38;;;;;;;;;;4972136;28;20130;-88
2022/08/20 13:22:43;;;;;;;7.28;2.40;;;;;;;;;;4972797;28;20507;-88
2022/08/20 13:25:10;;;;;;;7.53;2.20;;;;;;;;;;4972754;28;20050;-88
2022/08/20 13:27:37;;;;;;;5.97;2.50;;;;;;;;;;4972820;28;20412;-88
2022/08/20 13:30:04;;;;;;;5.72;2.47;;;;;;;;;;4970487;28;20050;-88
2022/08/20 13:32:30;;;;;;;6.80;2.25;;;;;;;;;;4972917;28;20047;-87
2022/08/20 13:34:56;;;;;;;5.85;2.10;;;;;;;;;;4971915;28;20053;-88
2022/08/20 13:37:23;;;;;;;6.47;2.33;;;;;;;;;;4972680;28;20137;-88
2022/08/20 13:39:49;;;;;;;4.53;2.33;;;;;;;;;;5003853;28;20054;-87
2022/08/20 13:42:15;;;;;;;6.82;2.63;;;;;;;;;;4972298;28;20469;-88
2022/08/20 13:44:41;;;;;;;5.03;2.40;;;;;;;;;;5002414;28;20046;-88
2022/08/20 13:47:15;;;;;;;4.40;2.42;;;;;;;;;;5019712;28;20106;-88
2022/08/20 13:49:41;;;;;;;6.82;2.47;;;;;;;;;;4971948;28;20376;-87
2022/08/20 13:52:07;;;;;;;4.95;2.60;;;;;;;;;;5003729;28;20046;-88
2022/08/20 13:54:33;;;;;;;10.13;2.50;;;;;;;;;;4972482;28;20451;-88
2022/08/20 13:57:10;;;;;;;4.22;2.40;;;;;;;;;;5003223;28;20527;-88
2022/08/20 13:59:38;;;;;;;5.90;2.40;;;;;;;;;;5002026;28;20039;-88
2022/08/20 14:02:04;;;;;;;6.20;2.70;;;;;;;;;;5002662;28;20117;-87
2022/08/20 14:04:30;;;;;;;7.05;2.60;;;;;;;;;;4972641;28;20054;-88
2022/08/20 14:06:56;;;;;;;7.65;2.70;;;;;;;;;;5003300;28;20058;-88
2022/08/20 14:09:22;;;;;;;8.07;3.05;;;;;;;;;;5003094;28;20042;-88
2022/08/20 14:11:48;;;;;;;4.72;2.58;;;;;;;;;;4972288;28;20042;-88
2022/08/20 14:14:14;;;;;;;7.35;2.67;;;;;;;;;;5003551;28;20047;-87
2022/08/20 14:16:40;;;;;;;8.25;2.85;;;;;;;;;;4969980;28;20046;-88
2022/08/20 14:19:06;;;;;;;8.27;2.70;;;;;;;;;;4972127;28;20050;-87
2022/08/20 14:21:32;;;;;;;7.68;3.40;;;;;;;;;;4972367;28;20066;-88
2022/08/20 14:24:00;;;;;;;7.10;2.80;;;;;;;;;;5002079;28;20046;-87
2022/08/20 14:26:26;;;;;;;8.23;2.88;;;;;;;;;;4972121;28;20049;-87
2022/08/20 14:28:52;;;;;;;8.35;3.15;;;;;;;;;;4975503;28;20543;-88
2022/08/20 14:31:18;;;;;;;8.40;3.22;;;;;;;;;;4974436;28;20051;-87
2022/08/20 14:33:44;;;;;;;7.45;2.92;;;;;;;;;;4976708;28;20043;-88
2022/08/20 14:36:10;;;;;;;6.88;3.13;;;;;;;;;;4975567;28;20053;-87
2022/08/20 14:38:40;;;;;;;7.93;2.83;;;;;;;;;;4975190;28;20042;-87
2022/08/20 14:41:06;;;;;;;8.38;2.80;;;;;;;;;;5007069;28;20078;-87
2022/08/20 14:43:32;;;;;;;6.20;3.10;;;;;;;;;;4976046;28;20050;-87
2022/08/20 14:45:58;;;;;;;8.60;2.88;;;;;;;;;;5005414;28;20050;-87
2022/08/20 14:48:26;;;;;;;7.47;2.85;;;;;;;;;;4975623;28;20443;-87
2022/08/20 14:50:55;;;;;;;4.43;2.50;;;;;;;;;;5007267;28;20058;-88